createdAt,value
2018-03-30T00:01:53.935Z,7.49
2018-03-30T00:04:21.561Z,7.43
2018-03-30T00:06:49.179Z,7.40
2018-03-30T00:09:28.466Z,7.39
2018-03-30T00:11:56.068Z,7.49
2018-03-30T00:14:23.665Z,7.50
2018-03-30T00:16:51.282Z,7.44
2018-03-30T00:19:18.867Z,7.60
2018-03-30T00:21:46.616Z,7.50
2018-03-30T00:24:14.229Z,7.42
2018-03-30T00:26:41.903Z,7.43
2018-03-30T00:29:09.603Z,7.36
2018-03-30T00:31:37.222Z,7.34
2018-03-30T00:34:11.375Z,7.36
2018-03-30T00:36:39.064Z,7.43
2018-03-30T00:39:06.648Z,7.38
2018-03-30T00:41:34.270Z,7.42
2018-03-30T00:44:01.923Z,7.39
2018-03-30T00:46:29.623Z,7.38
2018-03-30T00:48:57.209Z,7.37
2018-03-30T00:51:25.022Z,7.36
2018-03-30T00:53:52.654Z,7.33
2018-03-30T00:56:20.304Z,7.30
2018-03-30T00:58:47.896Z,7.25
2018-03-30T01:01:15.485Z,7.24
2018-03-30T01:03:43.258Z,7.24
2018-03-30T01:06:10.895Z,7.35
2018-03-30T01:08:38.529Z,7.36
2018-03-30T01:11:09.865Z,7.35
2018-03-30T01:13:37.555Z,7.30
2018-03-30T01:16:05.278Z,7.34
2018-03-30T01:18:32.918Z,7.34
2018-03-30T01:21:00.577Z,7.37
2018-03-30T01:23:28.288Z,7.45
2018-03-30T01:25:55.892Z,7.42
2018-03-30T01:28:23.585Z,7.39
2018-03-30T01:30:51.150Z,7.35
2018-03-30T01:33:18.778Z,7.28
2018-03-30T01:35:46.405Z,7.26
2018-03-30T01:38:14.023Z,7.24
2018-03-30T01:40:41.604Z,7.26
2018-03-30T01:43:09.215Z,7.23
2018-03-30T01:45:36.809Z,7.16
2018-03-30T01:48:04.441Z,7.20
2018-03-30T01:50:32.021Z,7.17
2018-03-30T01:52:59.687Z,7.18
2018-03-30T01:55:27.369Z,7.19
2018-03-30T01:57:54.934Z,7.18
2018-03-30T02:00:22.566Z,7.22
2018-03-30T02:02:50.159Z,7.21
2018-03-30T02:05:17.858Z,7.19
2018-03-30T02:07:45.520Z,7.16
2018-03-30T02:10:13.232Z,7.19
2018-03-30T02:12:40.830Z,7.19
2018-03-30T02:15:08.466Z,7.19
2018-03-30T02:17:36.070Z,7.19
2018-03-30T02:20:03.711Z,7.15
2018-03-30T02:22:31.278Z,7.15
2018-03-30T02:24:58.897Z,7.16
2018-03-30T02:27:26.555Z,7.17
2018-03-30T02:29:54.181Z,7.15
2018-03-30T02:32:21.765Z,7.18
2018-03-30T02:34:49.396Z,7.20
2018-03-30T02:37:17.311Z,7.22
2018-03-30T02:39:44.958Z,7.22
2018-03-30T02:42:12.501Z,7.19
2018-03-30T02:44:40.151Z,7.22
2018-03-30T02:47:07.746Z,7.19
2018-03-30T02:49:35.455Z,7.24
2018-03-30T02:52:03.092Z,7.25
2018-03-30T02:54:30.686Z,7.23
2018-03-30T02:56:58.317Z,7.25
2018-03-30T02:59:26.163Z,7.26
2018-03-30T03:01:53.794Z,7.31
2018-03-30T03:04:21.431Z,7.31
2018-03-30T03:06:49.042Z,7.28
2018-03-30T03:09:16.657Z,7.24
2018-03-30T03:11:44.439Z,7.30
2018-03-30T03:14:12.019Z,7.30
2018-03-30T03:16:39.817Z,7.29
2018-03-30T03:19:07.563Z,7.32
2018-03-30T03:21:35.180Z,7.29
2018-03-30T03:24:02.869Z,7.28
2018-03-30T03:26:30.497Z,7.26
2018-03-30T03:28:58.107Z,7.27
2018-03-30T03:31:25.722Z,7.26
2018-03-30T03:33:53.332Z,7.29
2018-03-30T03:36:20.950Z,7.31
2018-03-30T03:38:48.551Z,7.31
2018-03-30T03:41:16.582Z,7.38
2018-03-30T03:43:44.153Z,7.39
2018-03-30T03:46:11.738Z,7.37
2018-03-30T03:48:39.358Z,7.34
2018-03-30T03:51:06.968Z,7.33
2018-03-30T03:53:34.584Z,7.34
2018-03-30T03:56:02.251Z,7.39
2018-03-30T03:58:29.895Z,7.36
2018-03-30T04:00:57.494Z,7.33
2018-03-30T04:03:25.114Z,7.37
2018-03-30T04:05:52.709Z,7.37
2018-03-30T04:08:20.426Z,7.38
2018-03-30T04:10:48.016Z,7.37
2018-03-30T04:13:15.643Z,7.37
2018-03-30T04:15:43.246Z,7.37
2018-03-30T04:18:10.873Z,7.38
2018-03-30T04:20:38.483Z,7.36
2018-03-30T04:23:06.107Z,7.41
2018-03-30T04:25:33.687Z,7.43
2018-03-30T04:28:01.321Z,7.43
2018-03-30T04:30:28.921Z,7.43
2018-03-30T04:32:56.568Z,7.43
2018-03-30T04:35:24.152Z,7.47
2018-03-30T04:37:51.814Z,7.47
2018-03-30T04:40:19.437Z,7.42
2018-03-30T04:42:47.024Z,7.38
2018-03-30T04:45:14.656Z,7.32
2018-03-30T04:47:42.355Z,7.33
2018-03-30T04:50:10.002Z,7.35
2018-03-30T04:52:37.620Z,7.37
2018-03-30T04:55:05.261Z,7.34
2018-03-30T04:57:32.845Z,7.30
2018-03-30T05:00:00.495Z,7.31
2018-03-30T05:02:28.079Z,7.31
2018-03-30T05:04:55.832Z,7.32
2018-03-30T05:07:23.426Z,7.34
2018-03-30T05:09:51.044Z,7.36
2018-03-30T05:12:18.616Z,7.43
2018-03-30T05:14:46.244Z,7.48
2018-03-30T05:17:13.849Z,7.46
2018-03-30T05:19:41.460Z,7.42
2018-03-30T05:22:09.071Z,7.45
2018-03-30T05:24:36.709Z,7.49
2018-03-30T05:27:04.291Z,7.46
2018-03-30T05:29:31.881Z,7.50
2018-03-30T05:31:59.539Z,7.51
2018-03-30T05:34:27.160Z,7.56
2018-03-30T05:36:54.893Z,7.48
2018-03-30T05:39:22.486Z,7.45
2018-03-30T05:41:50.122Z,7.42
2018-03-30T05:44:17.706Z,7.42
2018-03-30T05:46:45.309Z,7.38
2018-03-30T05:49:12.889Z,7.46
2018-03-30T05:51:40.553Z,7.51
2018-03-30T05:54:08.123Z,7.55
2018-03-30T05:56:35.746Z,7.50
2018-03-30T05:59:03.342Z,7.46
2018-03-30T06:01:31.011Z,7.48
2018-03-30T06:03:58.594Z,7.49
2018-03-30T06:06:26.220Z,7.52
2018-03-30T06:08:53.822Z,7.58
2018-03-30T06:11:21.467Z,7.57
2018-03-30T06:13:49.082Z,7.60
2018-03-30T06:16:16.746Z,7.61
2018-03-30T06:18:44.444Z,7.64
2018-03-30T06:21:12.091Z,7.69
2018-03-30T06:23:39.700Z,7.70
2018-03-30T06:26:07.315Z,7.69
2018-03-30T06:28:34.931Z,7.73
2018-03-30T06:31:02.624Z,7.77
2018-03-30T06:33:30.254Z,7.81
2018-03-30T06:35:57.838Z,7.86
2018-03-30T06:38:25.466Z,7.87
2018-03-30T06:40:53.059Z,7.88
2018-03-30T06:43:20.674Z,7.93
2018-03-30T06:45:48.418Z,7.96
2018-03-30T06:48:16.113Z,8.00
2018-03-30T06:50:43.802Z,8.04
2018-03-30T06:53:11.447Z,8.13
2018-03-30T06:55:39.062Z,8.21
2018-03-30T06:58:06.686Z,8.24
2018-03-30T07:00:34.251Z,8.30
2018-03-30T07:03:01.872Z,8.37
2018-03-30T07:05:29.459Z,8.37
2018-03-30T07:07:57.095Z,8.47
2018-03-30T07:10:24.791Z,8.59
2018-03-30T07:12:52.421Z,8.62
2018-03-30T07:15:20.061Z,8.63
2018-03-30T07:17:47.648Z,8.67
2018-03-30T07:20:15.263Z,8.74
2018-03-30T07:22:42.996Z,8.77
2018-03-30T07:25:10.622Z,8.82
2018-03-30T07:27:38.287Z,8.88
2018-03-30T07:30:05.945Z,8.93
2018-03-30T07:32:33.570Z,9.01
2018-03-30T07:35:01.225Z,9.07
2018-03-30T07:37:28.827Z,9.10
2018-03-30T07:39:56.440Z,9.18
2018-03-30T07:42:24.358Z,9.21
2018-03-30T07:44:52.022Z,9.26
2018-03-30T07:47:19.614Z,9.28
2018-03-30T07:49:47.230Z,9.33
2018-03-30T07:52:14.825Z,9.38
2018-03-30T07:54:42.478Z,9.47
2018-03-30T07:57:10.071Z,9.57
2018-03-30T07:59:37.702Z,9.63
2018-03-30T08:02:05.334Z,9.65
2018-03-30T08:04:33.010Z,9.64
2018-03-30T08:07:00.612Z,9.68
2018-03-30T08:09:28.243Z,9.67
2018-03-30T08:11:55.883Z,9.68
2018-03-30T08:14:23.490Z,9.75
2018-03-30T08:16:51.147Z,9.86
2018-03-30T08:19:18.751Z,9.96
2018-03-30T08:21:46.414Z,10.07
2018-03-30T08:24:14.022Z,10.15
2018-03-30T08:26:41.658Z,10.15
2018-03-30T08:29:09.259Z,10.18
2018-03-30T08:31:36.884Z,10.30
2018-03-30T08:34:04.479Z,10.36
2018-03-30T08:36:32.096Z,10.41
2018-03-30T08:38:59.703Z,10.48
2018-03-30T08:41:27.327Z,10.53
2018-03-30T08:43:54.962Z,10.61
2018-03-30T08:46:22.627Z,10.64
2018-03-30T08:48:50.278Z,10.71
2018-03-30T08:51:17.960Z,10.86
2018-03-30T08:53:45.634Z,10.97
2018-03-30T08:56:13.283Z,11.03
2018-03-30T08:58:40.958Z,11.07
2018-03-30T09:01:08.697Z,11.21
2018-03-30T09:03:36.343Z,11.38
2018-03-30T09:06:03.952Z,11.44
2018-03-30T09:08:31.768Z,11.35
2018-03-30T09:10:59.372Z,11.36
2018-03-30T09:13:27.003Z,11.38
2018-03-30T09:15:54.608Z,11.42
2018-03-30T09:18:22.408Z,11.51
2018-03-30T09:20:49.999Z,11.55
2018-03-30T09:23:17.629Z,11.61
2018-03-30T09:25:45.221Z,11.80
2018-03-30T09:28:12.860Z,11.98
2018-03-30T09:30:40.482Z,12.10
2018-03-30T09:46:46.181Z,12.64
2018-03-30T09:49:13.802Z,12.73
2018-03-30T09:51:41.393Z,12.90
2018-03-30T09:54:09.063Z,12.97
2018-03-30T09:56:36.670Z,12.93
2018-03-30T09:59:04.298Z,12.77
2018-03-30T10:01:32.213Z,12.96
2018-03-30T10:03:59.858Z,12.97
2018-03-30T10:06:27.575Z,13.11
2018-03-30T10:08:55.203Z,13.32
2018-03-30T10:11:22.907Z,13.33
2018-03-30T10:13:50.566Z,13.33
2018-03-30T10:16:18.158Z,13.30
2018-03-30T10:18:45.787Z,13.38
2018-03-30T10:21:13.398Z,13.50
2018-03-30T10:23:41.056Z,13.64
2018-03-30T10:26:08.671Z,13.76
2018-03-30T10:28:36.270Z,13.87
2018-03-30T10:31:03.902Z,13.92
2018-03-30T10:33:31.530Z,13.96
2018-03-30T10:35:59.193Z,14.08
2018-03-30T10:38:26.774Z,14.15
2018-03-30T10:40:54.411Z,14.18
2018-03-30T10:43:22.024Z,14.25
2018-03-30T10:45:49.658Z,14.30
2018-03-30T10:48:17.291Z,14.45
2018-03-30T10:50:45.030Z,14.49
2018-03-30T10:53:12.645Z,14.62
2018-03-30T10:55:40.279Z,14.83
2018-03-30T10:58:07.959Z,14.89
2018-03-30T11:00:35.586Z,14.63
2018-03-30T11:03:03.178Z,14.67
2018-03-30T11:05:30.829Z,14.76
2018-03-30T11:07:58.418Z,14.92
2018-03-30T11:10:26.067Z,14.91
2018-03-30T11:12:53.650Z,14.94
2018-03-30T11:15:21.304Z,15.02
2018-03-30T11:17:48.896Z,15.12
2018-03-30T11:20:16.527Z,15.18
2018-03-30T11:22:44.119Z,15.42
2018-03-30T11:25:11.766Z,15.46
2018-03-30T11:27:39.375Z,15.62
2018-03-30T11:30:07.044Z,15.89
2018-03-30T11:32:34.689Z,15.93
2018-03-30T11:35:02.275Z,16.04
2018-03-30T11:37:29.913Z,16.05
2018-03-30T11:39:57.504Z,16.13
2018-03-30T11:42:25.192Z,16.04
2018-03-30T11:44:52.802Z,16.11
2018-03-30T11:47:20.443Z,16.44
2018-03-30T11:49:48.044Z,16.36
2018-03-30T11:52:15.676Z,16.02
2018-03-30T11:54:43.292Z,15.87
2018-03-30T11:57:10.911Z,15.75
2018-03-30T11:59:38.510Z,15.78
2018-03-30T12:02:06.257Z,15.54
2018-03-30T12:04:33.871Z,15.21
2018-03-30T12:07:01.589Z,15.12
2018-03-30T12:09:29.182Z,15.05
2018-03-30T12:11:56.813Z,14.79
2018-03-30T12:14:24.405Z,14.87
2018-03-30T12:16:51.976Z,15.07
2018-03-30T12:19:19.648Z,14.78
2018-03-30T12:21:47.276Z,14.69
2018-03-30T12:24:14.980Z,14.76
2018-03-30T12:26:42.558Z,14.86
2018-03-30T12:29:10.182Z,14.98
2018-03-30T12:31:37.780Z,14.83
2018-03-30T12:34:05.430Z,14.84
2018-03-30T12:36:33.067Z,14.80
2018-03-30T12:39:00.706Z,14.61
2018-03-30T12:41:28.306Z,14.76
2018-03-30T12:43:55.930Z,15.03
2018-03-30T12:46:23.597Z,15.27
2018-03-30T12:48:51.233Z,15.53
2018-03-30T12:51:18.899Z,15.30
2018-03-30T12:53:46.538Z,15.27
2018-03-30T12:56:14.146Z,15.19
2018-03-30T12:58:41.814Z,15.02
2018-03-30T13:01:09.431Z,14.98
2018-03-30T13:03:37.049Z,15.10
2018-03-30T13:06:04.654Z,15.10
2018-03-30T13:08:32.303Z,14.88
2018-03-30T13:11:00.502Z,14.69
2018-03-30T13:13:28.121Z,14.67
2018-03-30T13:15:55.762Z,14.76
2018-03-30T13:18:23.378Z,14.86
2018-03-30T13:20:51.342Z,14.89
2018-03-30T13:23:18.978Z,14.78
2018-03-30T13:25:46.681Z,14.72
2018-03-30T13:28:14.277Z,14.61
2018-03-30T13:30:42.258Z,14.68
2018-03-30T13:33:09.974Z,14.78
2018-03-30T13:35:37.601Z,14.63
2018-03-30T13:38:05.195Z,14.56
2018-03-30T13:40:32.810Z,14.73
2018-03-30T13:43:00.499Z,14.74
2018-03-30T13:45:28.137Z,14.70
2018-03-30T13:47:55.747Z,14.69
2018-03-30T13:53:20.551Z,14.64
2018-03-30T13:55:49.818Z,14.64
2018-03-30T13:58:21.139Z,14.66
2018-03-30T14:00:54.034Z,14.63
2018-03-30T14:06:45.138Z,14.72
2018-03-30T14:09:16.609Z,14.86
2018-03-30T14:11:48.767Z,14.95
2018-03-30T14:14:16.493Z,14.96
2018-03-30T14:16:48.917Z,15.01
2018-03-30T14:19:22.812Z,14.91
2018-03-30T14:21:58.871Z,14.94
2018-03-30T14:24:32.196Z,15.01
2018-03-30T14:27:14.682Z,15.02
2018-03-30T14:29:56.002Z,14.94
2018-03-30T14:32:25.365Z,14.73
2018-03-30T14:35:09.680Z,14.59
2018-03-30T14:37:37.307Z,14.61
2018-03-30T14:40:11.332Z,14.44
2018-03-30T14:45:54.574Z,14.56
2018-03-30T14:48:23.061Z,14.53
2018-03-30T14:50:54.121Z,14.40
2018-03-30T14:53:23.337Z,14.37
2018-03-30T14:55:53.324Z,14.32
2018-03-30T14:58:39.426Z,14.34
2018-03-30T15:01:07.022Z,14.34
2018-03-30T15:03:35.481Z,14.29
2018-03-30T15:06:17.490Z,14.31
2018-03-30T15:08:48.367Z,14.34
2018-03-30T15:11:35.222Z,14.22
2018-03-30T15:14:08.351Z,14.26
2018-03-30T15:16:47.187Z,14.32
2018-03-30T15:19:26.522Z,14.38
2018-03-30T15:21:59.683Z,14.36
2018-03-30T15:27:35.484Z,14.26
2018-03-30T15:43:31.811Z,14.21
2018-03-30T15:46:03.205Z,14.19
2018-03-30T15:48:30.823Z,14.21
2018-03-30T15:51:17.989Z,14.16
2018-03-30T15:53:45.007Z,14.16
2018-03-30T15:56:14.162Z,14.06
2018-03-30T15:58:41.740Z,14.03
2018-03-30T16:01:09.362Z,14.07
2018-03-30T16:03:36.959Z,14.05
2018-03-30T16:06:04.572Z,14.08
2018-03-30T16:08:32.163Z,14.10
2018-03-30T16:11:04.388Z,14.05
2018-03-30T16:13:31.980Z,14.07
2018-03-30T16:15:59.620Z,14.14
2018-03-30T16:18:33.040Z,14.15
2018-03-30T16:21:00.943Z,14.22
2018-03-30T16:23:27.955Z,14.22
2018-03-30T16:25:55.041Z,14.17
2018-03-30T16:28:22.068Z,14.17
2018-03-30T16:30:49.078Z,14.15
2018-03-30T16:33:16.145Z,14.14
2018-03-30T16:35:43.150Z,14.10
2018-03-30T16:38:10.223Z,14.07
2018-03-30T16:40:37.248Z,14.02
2018-03-30T16:43:04.315Z,14.00
2018-03-30T16:45:31.335Z,13.92
2018-03-30T16:47:58.385Z,13.87
2018-03-30T16:50:25.394Z,13.90
2018-03-30T16:52:52.445Z,13.86
2018-03-30T16:55:19.498Z,13.81
2018-03-30T16:57:46.561Z,13.82
2018-03-30T17:00:13.591Z,13.82
2018-03-30T17:02:40.667Z,13.77
2018-03-30T17:05:07.694Z,13.77
2018-03-30T17:07:34.776Z,13.77
2018-03-30T17:10:01.816Z,13.73
2018-03-30T17:12:28.853Z,13.70
2018-03-30T17:14:56.085Z,13.70
2018-03-30T17:17:23.093Z,13.76
2018-03-30T17:19:50.151Z,13.71
2018-03-30T17:22:17.177Z,13.70
2018-03-30T17:24:44.243Z,13.68
2018-03-30T17:27:11.267Z,13.68
2018-03-30T17:29:38.316Z,13.65
2018-03-30T17:32:05.363Z,13.63
2018-03-30T17:34:32.430Z,13.60
2018-03-30T17:36:59.435Z,13.58
2018-03-30T17:39:26.500Z,13.56
2018-03-30T17:41:53.514Z,13.55
2018-03-30T17:44:20.684Z,13.54
2018-03-30T17:46:47.686Z,13.51
2018-03-30T17:49:14.831Z,13.47
2018-03-30T17:51:41.842Z,13.39
2018-03-30T17:54:08.882Z,13.35
2018-03-30T17:56:35.923Z,13.21
2018-03-30T17:59:02.993Z,13.08
2018-03-30T18:01:30.079Z,12.95
2018-03-30T18:03:57.108Z,12.86
2018-03-30T18:06:24.154Z,12.85
2018-03-30T18:08:51.224Z,12.85
2018-03-30T18:11:18.283Z,12.86
2018-03-30T18:13:45.314Z,12.85
2018-03-30T18:16:12.376Z,12.81
2018-03-30T18:18:39.412Z,12.76
2018-03-30T18:21:06.475Z,12.71
2018-03-30T18:23:33.482Z,12.55
2018-03-30T18:26:00.542Z,12.41
2018-03-30T18:28:27.561Z,12.20
2018-03-30T18:30:54.629Z,12.13
2018-03-30T18:33:21.650Z,12.06
2018-03-30T18:35:48.720Z,12.03
2018-03-30T18:38:15.731Z,12.03
2018-03-30T18:40:42.828Z,12.03
2018-03-30T18:43:09.877Z,12.02
2018-03-30T18:45:36.930Z,11.99
2018-03-30T18:48:03.946Z,11.96
2018-03-30T18:50:31.014Z,11.93
2018-03-30T18:52:58.034Z,11.88
2018-03-30T18:55:25.116Z,11.87
2018-03-30T18:57:52.187Z,11.80
2018-03-30T19:00:19.226Z,11.70
2018-03-30T19:02:46.275Z,11.56
2018-03-30T19:05:13.313Z,11.53
2018-03-30T19:07:40.402Z,11.49
2018-03-30T19:10:07.444Z,11.45
2018-03-30T19:12:34.547Z,11.42
2018-03-30T19:15:01.596Z,11.39
2018-03-30T19:17:28.644Z,11.40
2018-03-30T19:19:55.668Z,11.41
2018-03-30T19:22:22.745Z,11.33
2018-03-30T19:24:49.790Z,11.27
2018-03-30T19:27:16.847Z,11.30
2018-03-30T19:29:43.903Z,11.26
2018-03-30T19:32:10.958Z,11.25
2018-03-30T19:34:37.996Z,11.19
2018-03-30T19:37:05.135Z,11.17
2018-03-30T19:39:32.158Z,11.07
2018-03-30T19:41:59.219Z,11.02
2018-03-30T19:44:26.293Z,11.03
2018-03-30T19:46:53.373Z,10.94
2018-03-30T19:49:20.407Z,10.86
2018-03-30T19:51:47.436Z,10.81
2018-03-30T19:54:14.511Z,10.75
2018-03-30T19:56:41.522Z,10.72
2018-03-30T19:59:08.590Z,10.69
2018-03-30T20:01:35.629Z,10.57
2018-03-30T20:04:02.701Z,10.52
2018-03-30T20:06:29.793Z,10.48
2018-03-30T20:08:56.955Z,10.48
2018-03-30T20:11:24.073Z,10.45
2018-03-30T20:13:51.403Z,10.46
2018-03-30T20:16:18.471Z,10.43
2018-03-30T20:18:45.523Z,10.45
2018-03-30T20:21:12.553Z,10.48
2018-03-30T20:23:39.620Z,10.51
2018-03-30T20:26:06.655Z,10.46
2018-03-30T20:28:33.735Z,10.43
2018-03-30T20:31:00.781Z,10.47
2018-03-30T20:33:27.826Z,10.36
2018-03-30T20:35:55.028Z,10.37
2018-03-30T20:38:22.101Z,10.37
2018-03-30T20:40:49.143Z,10.33
2018-03-30T20:43:16.201Z,10.32
2018-03-30T20:45:43.254Z,10.29
2018-03-30T20:48:10.366Z,10.27
2018-03-30T20:50:37.539Z,10.19
2018-03-30T20:53:04.578Z,10.19
2018-03-30T20:55:31.627Z,10.27
2018-03-30T20:57:58.643Z,10.23
2018-03-30T21:00:25.701Z,10.28
2018-03-30T21:02:52.731Z,10.29
2018-03-30T21:05:19.805Z,10.33
2018-03-30T21:07:46.828Z,10.33
2018-03-30T21:10:13.874Z,10.22
2018-03-30T21:12:40.903Z,10.19
2018-03-30T21:15:07.968Z,10.12
2018-03-30T21:17:34.974Z,10.22
2018-03-30T21:20:02.039Z,10.25
2018-03-30T21:22:29.042Z,10.27
2018-03-30T21:24:56.106Z,10.23
2018-03-30T21:27:23.135Z,10.13
2018-03-30T21:29:50.190Z,10.11
2018-03-30T21:32:17.254Z,9.95
2018-03-30T21:34:44.323Z,9.92
2018-03-30T21:37:11.360Z,9.86
2018-03-30T21:39:38.422Z,9.91
2018-03-30T21:42:05.450Z,9.85
2018-03-30T21:44:32.459Z,9.85
2018-03-30T21:46:59.527Z,9.91
2018-03-30T21:49:26.555Z,9.96
2018-03-30T21:51:53.620Z,9.84
2018-03-30T21:54:20.652Z,9.89
2018-03-30T21:56:47.715Z,9.89
2018-03-30T21:59:14.734Z,9.81
2018-03-30T22:01:41.797Z,9.73
2018-03-30T22:04:08.806Z,9.75
2018-03-30T22:06:35.927Z,9.82
2018-03-30T22:09:03.013Z,9.80
2018-03-30T22:11:30.327Z,9.75
2018-03-30T22:13:57.339Z,9.75
2018-03-30T22:16:24.416Z,9.75
2018-03-30T22:18:51.442Z,9.74
2018-03-30T22:21:18.502Z,9.73
2018-03-30T22:23:45.510Z,9.77
2018-03-30T22:26:12.567Z,9.90
2018-03-30T22:28:39.575Z,9.89
2018-03-30T22:31:06.637Z,9.79
2018-03-30T22:33:33.667Z,9.76
2018-03-30T22:36:00.717Z,9.75
2018-03-30T22:38:27.772Z,9.72
2018-03-30T22:40:54.799Z,9.76
2018-03-30T22:43:21.850Z,9.73
2018-03-30T22:45:48.869Z,9.72
2018-03-30T22:48:15.927Z,9.70
2018-03-30T22:50:42.934Z,9.61
2018-03-30T22:53:10.066Z,9.58
2018-03-30T22:55:37.127Z,9.67
2018-03-30T22:58:04.232Z,9.69
2018-03-30T23:00:31.314Z,9.66
2018-03-30T23:02:58.557Z,9.67
2018-03-30T23:05:25.733Z,9.67
2018-03-30T23:07:52.792Z,9.64
2018-03-30T23:10:19.802Z,9.53
2018-03-30T23:12:46.858Z,9.55
2018-03-30T23:15:13.875Z,9.45
2018-03-30T23:17:40.935Z,9.36
2018-03-30T23:20:07.938Z,9.40
2018-03-30T23:22:34.995Z,9.31
2018-03-30T23:25:02.019Z,9.29
2018-03-30T23:27:29.338Z,9.19
2018-03-30T23:29:56.386Z,9.18
2018-03-30T23:32:23.469Z,9.29
2018-03-30T23:34:50.485Z,9.27
2018-03-30T23:37:17.527Z,9.36
2018-03-30T23:39:44.724Z,9.50
2018-03-30T23:42:11.762Z,9.53
2018-03-30T23:44:38.811Z,9.59
2018-03-30T23:47:05.837Z,9.43
2018-03-30T23:49:32.876Z,9.28
2018-03-30T23:51:59.895Z,9.13
2018-03-30T23:54:26.935Z,9.12
2018-03-30T23:56:53.948Z,9.25
2018-03-30T23:59:21.131Z,9.34
